createdAt,value
2022-09-06T00:00:18.934Z,3.61
2022-09-06T00:02:46.307Z,3.23
2022-09-06T00:05:14.308Z,3.23
2022-09-06T00:07:42.074Z,3.42
2022-09-06T00:10:10.727Z,3.23
2022-09-06T00:12:38.162Z,2.85
2022-09-06T00:15:07.031Z,3.04
2022-09-06T00:17:34.152Z,2.85
2022-09-06T00:20:01.643Z,3.04
2022-09-06T00:22:28.640Z,2.85
2022-09-06T00:24:55.405Z,3.42
2022-09-06T00:27:22.406Z,3.23
2022-09-06T00:29:49.278Z,2.85
2022-09-06T00:32:16.540Z,2.85
2022-09-06T00:34:43.283Z,3.23
2022-09-06T00:37:10.103Z,2.85
2022-09-06T00:39:37.009Z,3.04
2022-09-06T00:42:14.833Z,2.47
2022-09-06T00:44:41.656Z,2.66
2022-09-06T00:47:09.791Z,2.85
2022-09-06T00:49:46.275Z,2.85
2022-09-06T00:52:16.634Z,3.23
2022-09-06T00:54:43.992Z,2.85
2022-09-06T00:57:11.667Z,3.23
2022-09-06T00:59:41.646Z,2.66
2022-09-06T01:02:09.578Z,2.09
2022-09-06T01:04:41.651Z,2.66
2022-09-06T01:07:56.526Z,2.28
2022-09-06T01:11:03.627Z,2.28
2022-09-06T01:14:14.825Z,2.09
2022-09-06T01:17:22.411Z,2.28
2022-09-06T01:20:20.451Z,2.47
2022-09-06T01:23:34.380Z,1.90
2022-09-06T01:26:45.060Z,1.90
2022-09-06T01:29:39.412Z,1.52
2022-09-06T01:32:29.447Z,1.90
2022-09-06T01:35:17.135Z,2.09
2022-09-06T01:37:43.918Z,2.09
2022-09-06T01:40:10.737Z,1.90
2022-09-06T01:42:42.207Z,3.04
2022-09-06T01:45:19.772Z,2.28
2022-09-06T01:47:55.223Z,2.47
2022-09-06T01:50:52.391Z,2.09
2022-09-06T01:53:51.582Z,2.09
2022-09-06T01:56:50.568Z,2.09
2022-09-06T02:00:11.487Z,1.90
2022-09-06T02:03:16.516Z,2.28
2022-09-06T02:06:03.064Z,1.71
2022-09-06T02:08:39.189Z,1.71
2022-09-06T02:11:09.393Z,1.71
2022-09-06T02:13:46.154Z,1.90
2022-09-06T02:16:19.696Z,2.09
2022-09-06T02:19:07.675Z,1.90
2022-09-06T02:21:41.659Z,2.09
2022-09-06T02:24:18.491Z,2.09
2022-09-06T02:26:47.689Z,1.71
2022-09-06T02:29:16.722Z,1.71
2022-09-06T02:31:50.939Z,1.52
2022-09-06T02:34:20.874Z,1.90
2022-09-06T02:36:48.337Z,2.09
2022-09-06T02:39:15.301Z,1.90
2022-09-06T02:41:46.562Z,1.71
2022-09-06T02:44:13.979Z,2.09
2022-09-06T02:46:41.145Z,2.09
2022-09-06T02:49:07.864Z,1.90
2022-09-06T02:51:39.504Z,2.28
2022-09-06T02:54:07.555Z,2.28
2022-09-06T02:56:36.582Z,1.90
2022-09-06T02:59:04.971Z,1.90
2022-09-06T03:01:34.217Z,2.09
2022-09-06T03:04:01.204Z,2.47
2022-09-06T03:06:28.182Z,2.47
2022-09-06T03:08:54.889Z,2.09
2022-09-06T03:11:21.861Z,1.90
2022-09-06T03:13:48.628Z,1.90
2022-09-06T03:16:15.528Z,1.71
2022-09-06T03:18:42.787Z,1.90
2022-09-06T03:21:09.933Z,1.90
2022-09-06T03:23:39.578Z,2.09
2022-09-06T03:26:07.661Z,1.90
2022-09-06T03:28:34.595Z,2.28
2022-09-06T03:31:01.445Z,2.28
2022-09-06T03:33:28.255Z,2.28
2022-09-06T03:36:01.680Z,1.90
2022-09-06T03:38:30.654Z,2.66
2022-09-06T03:40:58.011Z,1.71
2022-09-06T03:43:27.013Z,2.28
2022-09-06T03:45:59.509Z,2.85
2022-09-06T03:48:29.637Z,1.90
2022-09-06T03:50:59.376Z,2.09
2022-09-06T03:53:28.907Z,2.09
2022-09-06T03:56:00.206Z,2.47
2022-09-06T03:58:31.587Z,2.85
2022-09-06T04:01:07.466Z,2.66
2022-09-06T04:03:36.048Z,2.09
2022-09-06T04:06:04.917Z,2.09
2022-09-06T04:08:33.666Z,2.47
2022-09-06T04:11:00.540Z,2.28
2022-09-06T04:13:29.632Z,2.47
2022-09-06T04:15:57.065Z,2.28
2022-09-06T04:18:24.021Z,1.52
2022-09-06T04:20:53.515Z,2.47
2022-09-06T04:23:20.726Z,2.28
2022-09-06T04:25:50.180Z,2.28
2022-09-06T04:28:18.695Z,2.28
2022-09-06T04:31:04.557Z,2.66
2022-09-06T04:33:34.884Z,2.47
2022-09-06T04:36:08.612Z,2.47
2022-09-06T04:38:40.291Z,2.09
2022-09-06T04:41:12.729Z,2.66
2022-09-06T04:43:39.839Z,2.09
2022-09-06T04:46:15.315Z,2.09
2022-09-06T04:48:42.020Z,2.28
2022-09-06T04:51:08.790Z,2.28
2022-09-06T04:53:35.619Z,2.09
2022-09-06T04:56:02.928Z,2.47
2022-09-06T04:58:29.845Z,2.47
2022-09-06T05:00:56.857Z,2.85
2022-09-06T05:03:23.929Z,2.09
2022-09-06T05:05:50.912Z,2.09
2022-09-06T05:08:17.851Z,2.28
2022-09-06T05:10:44.564Z,2.47
2022-09-06T05:13:11.238Z,1.71
2022-09-06T05:15:38.075Z,3.04
2022-09-06T05:18:06.771Z,2.28
2022-09-06T05:20:33.534Z,2.85
2022-09-06T05:23:00.283Z,2.28
2022-09-06T05:25:27.092Z,2.66
2022-09-06T05:27:53.739Z,2.47
2022-09-06T05:30:20.746Z,2.47
2022-09-06T05:32:47.473Z,2.47
2022-09-06T05:35:14.516Z,1.90
2022-09-06T05:37:41.244Z,2.66
2022-09-06T05:40:08.911Z,2.66
2022-09-06T05:42:35.865Z,2.28
2022-09-06T05:45:02.590Z,2.66
2022-09-06T05:47:31.158Z,2.85
2022-09-06T05:49:57.962Z,2.66
2022-09-06T05:52:24.672Z,2.47
2022-09-06T05:54:51.391Z,2.85
2022-09-06T05:57:18.107Z,2.28
2022-09-06T05:59:44.835Z,2.28
2022-09-06T06:02:11.739Z,2.85
2022-09-06T06:04:38.445Z,2.85
2022-09-06T06:07:05.227Z,2.85
2022-09-06T06:09:31.918Z,3.04
2022-09-06T06:11:58.556Z,2.85
2022-09-06T06:14:25.305Z,2.85
2022-09-06T06:16:52.056Z,2.47
2022-09-06T06:19:18.850Z,2.28
2022-09-06T06:21:45.602Z,2.09
2022-09-06T06:24:12.539Z,2.66
2022-09-06T06:26:39.644Z,2.66
2022-09-06T06:29:09.551Z,2.66
2022-09-06T06:31:38.914Z,3.23
2022-09-06T06:34:06.993Z,2.28
2022-09-06T06:36:36.874Z,2.28
2022-09-06T06:39:07.169Z,2.66
2022-09-06T06:41:33.948Z,2.47
2022-09-06T06:44:03.823Z,2.09
2022-09-06T06:46:37.413Z,2.47
2022-09-06T06:49:05.117Z,3.04
2022-09-06T06:51:37.078Z,2.66
2022-09-06T06:54:05.844Z,3.04
2022-09-06T06:56:40.722Z,2.47
2022-09-06T06:59:08.322Z,2.47
2022-09-06T07:01:37.142Z,2.28
2022-09-06T07:04:05.677Z,3.04
2022-09-06T07:12:24.927Z,2.85
2022-09-06T07:14:51.617Z,2.66
2022-09-06T07:17:18.267Z,3.23
2022-09-06T07:22:31.636Z,3.23
2022-09-06T07:24:58.303Z,2.66
2022-09-06T07:30:14.191Z,3.23
2022-09-06T07:32:41.012Z,3.99
2022-09-06T07:35:08.588Z,3.42
2022-09-06T07:37:35.467Z,3.04
2022-09-06T07:40:03.677Z,3.23
2022-09-06T07:42:36.486Z,3.23
2022-09-06T07:45:05.215Z,3.61
2022-09-06T07:53:08.583Z,2.66
2022-09-06T07:55:38.049Z,3.80
2022-09-06T07:58:04.842Z,3.23
2022-09-06T08:00:31.948Z,2.85
2022-09-06T08:02:58.994Z,3.61
2022-09-06T08:10:59.072Z,3.99
2022-09-06T08:13:25.866Z,3.80
2022-09-06T08:16:05.282Z,3.80
2022-09-06T08:18:32.692Z,3.99
2022-09-06T08:21:28.275Z,3.61
2022-09-06T08:24:07.777Z,3.42
2022-09-06T08:26:42.454Z,4.37
2022-09-06T08:29:10.976Z,3.80
2022-09-06T08:31:42.094Z,4.56
2022-09-06T08:34:12.545Z,4.56
2022-09-06T08:36:39.301Z,4.18
2022-09-06T08:39:09.935Z,4.56
2022-09-06T08:42:01.004Z,4.18
2022-09-06T08:45:06.450Z,4.56
2022-09-06T08:47:23.465Z,4.56
2022-09-06T08:50:11.325Z,3.99
2022-09-06T08:53:16.120Z,3.99
2022-09-06T08:56:16.895Z,3.61
2022-09-06T08:59:07.591Z,3.99
2022-09-06T09:01:55.659Z,4.37
2022-09-06T09:04:27.695Z,4.37
2022-09-06T09:07:06.940Z,4.37
2022-09-06T09:09:35.708Z,3.99
2022-09-06T09:12:03.334Z,4.37
2022-09-06T09:14:36.527Z,4.56
2022-09-06T09:17:29.277Z,3.80
2022-09-06T09:19:56.884Z,4.94
2022-09-06T09:22:25.832Z,5.13
2022-09-06T09:24:54.572Z,4.37
2022-09-06T09:27:28.739Z,4.94
2022-09-06T09:32:45.889Z,5.13
2022-09-06T09:35:40.782Z,4.75
2022-09-06T09:38:19.306Z,5.32
2022-09-06T09:40:56.129Z,5.32
2022-09-06T09:43:25.830Z,6.08
2022-09-06T09:46:22.699Z,5.13
2022-09-06T09:49:27.540Z,5.89
2022-09-06T09:52:13.013Z,5.32
2022-09-06T09:54:44.979Z,6.27
2022-09-06T09:57:18.463Z,5.51
2022-09-06T09:59:58.705Z,6.27
2022-09-06T10:02:35.880Z,6.46
2022-09-06T10:05:21.448Z,5.89
2022-09-06T10:07:53.441Z,6.46
2022-09-06T10:10:31.443Z,6.27
2022-09-06T10:13:21.509Z,5.89
2022-09-06T10:15:51.960Z,6.08
2022-09-06T10:18:37.058Z,6.27
2022-09-06T10:21:24.071Z,6.46
2022-09-06T10:24:30.637Z,6.46
2022-09-06T10:27:02.461Z,5.89
2022-09-06T10:29:56.056Z,6.46
2022-09-06T10:33:06.335Z,5.70
2022-09-06T10:35:40.039Z,5.70
2022-09-06T10:38:35.674Z,5.89
2022-09-06T10:41:42.549Z,6.08
2022-09-06T10:44:24.359Z,6.65
2022-09-06T10:47:11.808Z,6.46
2022-09-06T10:49:43.983Z,6.46
2022-09-06T10:52:25.609Z,6.65
2022-09-06T10:55:02.195Z,7.60
2022-09-06T11:00:49.364Z,5.89
2022-09-06T11:04:01.904Z,6.27
2022-09-06T11:06:43.044Z,5.51
2022-09-06T11:09:53.429Z,6.84
2022-09-06T11:12:39.745Z,6.46
2022-09-06T11:15:11.877Z,6.46
2022-09-06T11:18:10.455Z,6.08
2022-09-06T11:20:44.686Z,6.84
2022-09-06T11:23:32.792Z,7.60
2022-09-06T11:26:36.455Z,7.22
2022-09-06T11:29:10.550Z,6.08
2022-09-06T11:34:53.633Z,7.22
2022-09-06T11:37:36.893Z,6.27
2022-09-06T11:42:51.405Z,6.84
2022-09-06T11:45:39.738Z,6.65
2022-09-06T11:48:33.973Z,6.27
2022-09-06T11:51:06.779Z,7.41
2022-09-06T11:53:57.746Z,7.03
2022-09-06T11:56:40.757Z,6.08
2022-09-06T11:59:15.927Z,6.46
2022-09-06T12:02:02.368Z,7.03
2022-09-06T12:05:00.962Z,6.46
2022-09-06T12:07:31.246Z,6.08
2022-09-06T12:10:22.885Z,6.46
2022-09-06T12:12:52.638Z,7.22
2022-09-06T12:15:52.358Z,7.03
2022-09-06T12:18:47.239Z,6.65
2022-09-06T12:21:40.203Z,6.08
2022-09-06T12:24:28.764Z,7.03
2022-09-06T12:27:22.676Z,7.22
2022-09-06T12:30:12.180Z,6.65
2022-09-06T12:32:51.910Z,7.22
2022-09-06T12:38:17.195Z,7.03
2022-09-06T12:40:58.936Z,6.84
2022-09-06T12:43:27.134Z,7.03
2022-09-06T12:45:54.066Z,6.65
2022-09-06T12:48:33.589Z,7.22
2022-09-06T12:51:19.398Z,6.84
2022-09-06T12:54:04.259Z,7.60
2022-09-06T12:56:34.308Z,8.36
2022-09-06T12:59:21.336Z,8.36
2022-09-06T13:02:30.358Z,7.41
2022-09-06T13:05:07.096Z,8.93
2022-09-06T13:07:41.020Z,7.22
2022-09-06T13:10:09.521Z,7.79
2022-09-06T13:12:44.340Z,7.98
2022-09-06T13:15:19.659Z,7.60
2022-09-06T13:17:47.433Z,6.84
2022-09-06T13:20:30.475Z,8.17
2022-09-06T13:23:19.789Z,7.60
2022-09-06T13:25:50.305Z,8.36
2022-09-06T13:28:31.818Z,7.41
2022-09-06T13:31:08.382Z,7.22
2022-09-06T13:33:37.807Z,7.79
2022-09-06T13:36:28.003Z,7.60
2022-09-06T13:38:55.759Z,7.22
2022-09-06T13:41:25.223Z,6.46
2022-09-06T13:44:04.456Z,6.65
2022-09-06T13:46:33.361Z,6.84
2022-09-06T13:49:00.636Z,6.65
2022-09-06T13:51:28.053Z,7.60
2022-09-06T13:54:14.202Z,8.17
2022-09-06T13:56:44.650Z,7.41
2022-09-06T13:59:12.784Z,7.41
2022-09-06T14:01:43.014Z,7.79
2022-09-06T14:04:21.311Z,7.22
2022-09-06T14:06:49.352Z,7.60
2022-09-06T14:09:16.180Z,7.03
2022-09-06T14:11:47.480Z,7.98
2022-09-06T14:14:17.664Z,7.79
2022-09-06T14:16:46.047Z,6.84
2022-09-06T14:19:13.231Z,7.41
2022-09-06T14:21:40.378Z,7.41
2022-09-06T14:24:07.927Z,6.84
2022-09-06T14:26:37.022Z,6.65
2022-09-06T14:29:04.689Z,7.03
2022-09-06T14:31:34.712Z,7.22
2022-09-06T14:34:02.618Z,6.84
2022-09-06T14:36:32.234Z,6.65
2022-09-06T14:39:01.515Z,7.60
2022-09-06T14:41:28.971Z,6.46
2022-09-06T14:43:58.688Z,7.60
2022-09-06T14:46:28.179Z,7.79
2022-09-06T14:49:02.079Z,7.98
2022-09-06T14:51:30.626Z,7.41
2022-09-06T14:54:07.081Z,7.60
2022-09-06T14:56:34.607Z,7.60
2022-09-06T14:59:01.739Z,8.17
2022-09-06T15:01:38.143Z,6.65
2022-09-06T15:04:09.267Z,7.79
2022-09-06T15:06:40.303Z,7.22
2022-09-06T15:09:08.162Z,7.79
2022-09-06T15:11:39.387Z,7.03
2022-09-06T15:14:13.393Z,7.41
2022-09-06T15:16:40.153Z,7.22
2022-09-06T15:19:08.956Z,7.41
2022-09-06T15:21:36.334Z,6.46
2022-09-06T15:24:07.324Z,8.55
2022-09-06T15:26:36.692Z,7.98
2022-09-06T15:29:04.049Z,7.98
2022-09-06T15:31:34.097Z,7.03
2022-09-06T15:34:02.873Z,6.84
2022-09-06T15:36:30.292Z,7.41
2022-09-06T15:39:01.153Z,7.22
2022-09-06T15:41:32.361Z,6.65
2022-09-06T15:44:02.891Z,7.79
2022-09-06T15:46:50.988Z,7.60
2022-09-06T15:49:28.165Z,7.98
2022-09-06T15:51:59.516Z,7.98
2022-09-06T15:54:45.977Z,7.79
2022-09-06T15:57:16.167Z,7.22
2022-09-06T15:59:43.481Z,7.22
2022-09-06T16:02:11.466Z,6.27
2022-09-06T16:04:38.432Z,7.79
2022-09-06T16:07:06.224Z,7.60
2022-09-06T16:09:33.281Z,7.41
2022-09-06T16:12:00.043Z,7.60
2022-09-06T16:14:28.165Z,7.22
2022-09-06T16:16:56.298Z,6.84
2022-09-06T16:19:26.191Z,6.65
2022-09-06T16:21:53.609Z,6.84
2022-09-06T16:24:21.477Z,7.79
2022-09-06T16:26:48.701Z,7.03
2022-09-06T16:29:18.367Z,7.41
2022-09-06T16:31:46.932Z,6.84
2022-09-06T16:34:15.432Z,7.03
2022-09-06T16:36:42.412Z,8.74
2022-09-06T16:39:10.731Z,7.79
2022-09-06T16:41:44.459Z,7.41
2022-09-06T16:44:18.463Z,6.84
2022-09-06T16:46:48.006Z,7.41
2022-09-06T16:49:17.582Z,7.60
2022-09-06T16:51:46.445Z,7.79
2022-09-06T16:54:15.429Z,7.41
2022-09-06T16:56:43.321Z,7.22
2022-09-06T16:59:12.153Z,7.22
2022-09-06T17:01:45.078Z,6.84
2022-09-06T17:04:13.106Z,7.03
2022-09-06T17:06:44.663Z,7.60
2022-09-06T17:09:16.297Z,7.41
2022-09-06T17:11:43.228Z,7.22
2022-09-06T17:14:10.116Z,7.41
2022-09-06T17:16:55.762Z,7.22
2022-09-06T17:19:22.746Z,6.08
2022-09-06T17:21:49.459Z,6.84
2022-09-06T17:24:16.597Z,6.65
2022-09-06T17:26:43.347Z,6.46
2022-09-06T17:29:10.807Z,6.46
2022-09-06T17:31:38.241Z,6.46
2022-09-06T17:34:06.769Z,6.46
2022-09-06T17:36:34.626Z,6.46
2022-09-06T17:39:08.671Z,6.27
2022-09-06T17:41:43.052Z,6.27
2022-09-06T17:44:13.150Z,6.65
2022-09-06T17:46:57.078Z,6.46
2022-09-06T17:49:28.479Z,6.84
2022-09-06T17:51:55.218Z,6.84
2022-09-06T17:54:22.354Z,6.08
2022-09-06T17:56:49.059Z,6.46
2022-09-06T17:59:15.971Z,5.32
2022-09-06T18:01:45.628Z,6.27
2022-09-06T18:04:14.428Z,6.46
2022-09-06T18:06:43.379Z,5.70
2022-09-06T18:09:15.837Z,5.89
2022-09-06T18:11:45.950Z,6.27
2022-09-06T18:14:17.495Z,5.89
2022-09-06T18:16:47.240Z,6.65
2022-09-06T18:19:15.462Z,6.27
2022-09-06T18:21:42.641Z,6.65
2022-09-06T18:24:13.615Z,6.27
2022-09-06T18:26:41.765Z,5.89
2022-09-06T18:29:13.070Z,5.89
2022-09-06T18:31:41.305Z,5.51
2022-09-06T18:34:09.241Z,6.46
2022-09-06T18:36:38.344Z,6.65
2022-09-06T18:39:06.614Z,6.65
2022-09-06T18:41:53.593Z,5.89
2022-09-06T18:44:21.770Z,6.08
2022-09-06T18:46:49.229Z,5.89
2022-09-06T18:49:16.989Z,4.94
2022-09-06T18:51:44.660Z,5.32
2022-09-06T18:54:11.996Z,5.70
2022-09-06T18:56:38.779Z,5.70
2022-09-06T18:59:07.165Z,5.89
2022-09-06T19:01:35.240Z,5.89
2022-09-06T19:04:05.163Z,5.70
2022-09-06T19:06:34.843Z,5.70
2022-09-06T19:09:07.189Z,6.27
2022-09-06T19:11:34.889Z,5.51
2022-09-06T19:14:02.428Z,6.08
2022-09-06T19:16:31.578Z,6.84
2022-09-06T19:19:09.961Z,5.89
2022-09-06T19:21:41.759Z,5.89
2022-09-06T19:24:11.934Z,5.89
2022-09-06T19:26:43.315Z,6.08
2022-09-06T19:29:18.748Z,5.32
2022-09-06T19:31:47.444Z,6.08
2022-09-06T19:34:15.945Z,5.13
2022-09-06T19:36:44.909Z,5.51
2022-09-06T19:39:15.492Z,6.08
2022-09-06T19:41:47.658Z,5.70
2022-09-06T19:44:17.246Z,5.51
2022-09-06T19:46:46.756Z,5.32
2022-09-06T19:49:19.053Z,5.89
2022-09-06T19:51:48.849Z,5.32
2022-09-06T19:54:16.858Z,5.89
2022-09-06T19:56:44.915Z,5.89
2022-09-06T19:59:14.195Z,5.89
2022-09-06T20:01:44.405Z,5.32
2022-09-06T20:04:13.803Z,5.70
2022-09-06T20:06:41.211Z,6.08
2022-09-06T20:09:10.250Z,6.08
2022-09-06T20:11:39.391Z,5.13
2022-09-06T20:14:06.836Z,5.51
2022-09-06T20:16:35.282Z,5.51
2022-09-06T20:19:05.031Z,5.70
2022-09-06T20:21:32.103Z,5.70
2022-09-06T20:23:59.692Z,5.32
2022-09-06T20:26:30.372Z,5.13
2022-09-06T20:29:00.453Z,5.89
2022-09-06T20:31:30.821Z,4.56
2022-09-06T20:34:04.235Z,5.32
2022-09-06T20:36:31.498Z,5.70
2022-09-06T20:38:58.329Z,5.70
2022-09-06T20:41:27.096Z,5.70
2022-09-06T20:43:57.122Z,5.89
2022-09-06T20:46:30.581Z,5.89
2022-09-06T20:49:01.903Z,5.32
2022-09-06T20:51:28.641Z,6.27
2022-09-06T20:54:01.295Z,5.32
2022-09-06T20:56:33.803Z,5.70
2022-09-06T20:59:03.914Z,6.08
2022-09-06T21:01:35.845Z,5.89
2022-09-06T21:04:06.606Z,5.70
2022-09-06T21:06:37.125Z,5.13
2022-09-06T21:09:08.841Z,6.08
2022-09-06T21:11:36.572Z,6.08
2022-09-06T21:14:04.755Z,5.89
2022-09-06T21:16:32.354Z,5.32
2022-09-06T21:19:06.367Z,6.27
2022-09-06T21:21:35.038Z,5.32
2022-09-06T21:24:04.381Z,6.08
2022-09-06T21:26:31.783Z,5.70
2022-09-06T21:28:59.126Z,5.89
2022-09-06T21:31:31.071Z,6.27
2022-09-06T21:34:03.247Z,5.32
2022-09-06T21:36:35.182Z,6.08
2022-09-06T21:39:12.686Z,6.27
2022-09-06T21:41:42.392Z,5.51
2022-09-06T21:44:10.464Z,5.70
2022-09-06T21:46:39.847Z,5.89
2022-09-06T21:49:10.931Z,6.08
2022-09-06T21:51:38.760Z,5.70
2022-09-06T21:54:06.767Z,5.89
2022-09-06T21:56:37.703Z,5.51
2022-09-06T21:59:06.521Z,5.51
2022-09-06T22:01:36.262Z,5.32
2022-09-06T22:04:04.433Z,4.94
2022-09-06T22:06:33.820Z,5.51
2022-09-06T22:09:07.616Z,4.94
2022-09-06T22:11:41.143Z,5.51
2022-09-06T22:14:11.349Z,4.94
2022-09-06T22:16:40.548Z,5.13
2022-09-06T22:19:09.723Z,5.51
2022-09-06T22:21:38.529Z,4.94
2022-09-06T22:24:09.988Z,5.13
2022-09-06T22:26:39.912Z,5.32
2022-09-06T22:29:10.709Z,4.75
2022-09-06T22:31:38.048Z,5.51
2022-09-06T22:34:05.945Z,4.94
2022-09-06T22:36:33.688Z,4.75
2022-09-06T22:39:00.484Z,5.70
2022-09-06T22:41:30.881Z,4.94
2022-09-06T22:44:00.856Z,4.75
2022-09-06T22:46:29.009Z,4.94
2022-09-06T22:48:55.976Z,4.75
2022-09-06T22:51:23.106Z,4.37
2022-09-06T22:53:50.553Z,4.94
2022-09-06T22:56:17.387Z,4.75
2022-09-06T22:58:44.224Z,4.56
2022-09-06T23:01:17.067Z,4.37
2022-09-06T23:03:44.580Z,3.99
2022-09-06T23:06:11.537Z,4.56
2022-09-06T23:08:40.704Z,4.56
2022-09-06T23:11:14.657Z,4.37
2022-09-06T23:13:46.127Z,4.18
2022-09-06T23:16:17.549Z,3.99
2022-09-06T23:18:46.072Z,4.18
2022-09-06T23:21:17.234Z,4.37
2022-09-06T23:23:44.806Z,4.56
2022-09-06T23:26:19.185Z,4.56
2022-09-06T23:28:46.367Z,4.37
2022-09-06T23:31:15.580Z,4.75
2022-09-06T23:33:42.977Z,4.18
2022-09-06T23:36:14.620Z,4.94
2022-09-06T23:38:42.697Z,4.37
2022-09-06T23:41:11.165Z,4.37
2022-09-06T23:43:40.370Z,5.70
2022-09-06T23:46:08.789Z,4.56
2022-09-06T23:48:36.233Z,3.80
2022-09-06T23:51:04.354Z,4.56
2022-09-06T23:53:31.965Z,4.56
2022-09-06T23:55:59.096Z,4.56
2022-09-06T23:58:26.430Z,4.37
